Spring Park, MN (55384)

12:36 AM CST on February 12, 2016 (GMT -0600)
Spring Park Bay | | Change Station
CLOSE
Current Station
Personal Weather Station
Location: Mound, MN
Elevation: 956 ft
Nearby Weather Stations

Elev 956 ft 44.93 °N, 93.63 °W | Updated 9 seconds ago

Overcast
Overcast
13.9 °F
Feels Like 5 °F
N
5.6
Wind Variable Wind from NW
Gusts 7.0 mph

Today
High -- | Low -- °F
--% Chance of Precip.
Yesterday
High -- | Low -- °F
Precip. -- in
Pressure 30.27 in
Visibility 9.0 miles
Clouds Overcast 4300 ft
Windchill 5 °F
Dew Point 11 °F
Humidity 84%
Rainfall 0.00 in
Snow Depth Not available.
7:20 AM 5:37 PM
Waxing Crescent, 18% visible
METAR KFCM 120553Z AUTO 28005KT 9SM OVC043 M09/M13 A3021 RMK AO2 SLP249 60000 T10891133 11083 21100 410831189 56006
Pressure 30.27 in
Visibility 9.0 miles
Clouds Overcast 4300 ft
Windchill 5 °F
Dew Point 11 °F
Humidity 84%
Rainfall 0.00 in
Snow Depth Not available.
7:20 AM 5:37 PM
Waxing Crescent, 18% visible
METAR KFCM 120553Z AUTO 28005KT 9SM OVC043 M09/M13 A3021 RMK AO2 SLP249 60000 T10891133 11083 21100 410831189 56006

10-Day Weather Forecast

Almanac

Astronomy

Feb. 12, 2016 Rise Set
Actual Time
Civil Twilight
Nautical Twilight
Astronomical Twilight
Moon
Length of Visible Light
Length of Day
Tomorrow will be .
, % of the Moon is Illuminated

Today's Extremes

State Highs State Lows

Community

WunderPhotos

Upload Photos

1,892,276 photos uploaded!

WunderBlog® & News

Nearby

Air Quality

  Air Quality AQ Index Pollutant
Not available.

Snow Depth

Station Depth Elevation

Earthquake Activity

City Distance Mag. Time & Date
Minimum magnitude displayed is 2.5.

Coastal Water Temperatures

Place Temperature

Stations

Nearby Weather Stations

Station Location Temp. Windchill Dew Point Humidity Wind Precip. Elev Updated Type
                   

Watches & Warnings

There are currently no watches in effect.